createdAt,value
2023-03-15T00:00:29.388Z,3.03
2023-03-15T00:03:31.675Z,2.95
2023-03-15T00:06:34.744Z,3.70
2023-03-15T00:09:36.802Z,4.20
2023-03-15T00:12:39.847Z,3.95
2023-03-15T00:15:47.360Z,4.80
2023-03-15T00:18:49.694Z,4.35
2023-03-15T00:21:51.993Z,4.40
2023-03-15T00:24:54.010Z,4.72
2023-03-15T00:27:56.104Z,4.88
2023-03-15T00:31:05.384Z,4.60
2023-03-15T00:34:07.521Z,3.90
2023-03-15T00:37:09.963Z,3.87
2023-03-15T00:40:13.605Z,3.97
2023-03-15T00:43:18.021Z,4.72
2023-03-15T00:46:20.555Z,4.63
2023-03-15T00:49:22.739Z,4.70
2023-03-15T00:52:24.940Z,5.30
2023-03-15T00:55:27.250Z,4.95
2023-03-15T00:58:29.375Z,5.43
2023-03-15T01:01:31.553Z,5.70
2023-03-15T01:04:33.804Z,5.50
2023-03-15T01:07:36.091Z,5.03
2023-03-15T01:10:42.191Z,4.93
2023-03-15T01:13:44.576Z,5.20
2023-03-15T01:16:46.724Z,5.18
2023-03-15T01:19:49.068Z,4.60
2023-03-15T01:22:51.268Z,3.50
2023-03-15T01:25:53.395Z,3.17
2023-03-15T01:28:56.142Z,3.60
2023-03-15T01:31:58.186Z,2.65
2023-03-15T01:35:00.317Z,2.95
2023-03-15T01:38:02.424Z,2.50
2023-03-15T01:41:07.804Z,3.30
2023-03-15T01:44:15.372Z,3.15
2023-03-15T01:47:18.519Z,2.70
2023-03-15T01:50:25.458Z,2.50
2023-03-15T01:53:31.400Z,2.80
2023-03-15T01:56:36.303Z,2.88
2023-03-15T01:59:46.766Z,2.47
2023-03-15T02:03:14.614Z,2.50
2023-03-15T02:06:21.120Z,2.78
2023-03-15T02:09:34.268Z,3.33
2023-03-15T02:12:46.094Z,3.20
2023-03-15T02:15:48.795Z,2.92
2023-03-15T02:18:59.183Z,3.05
2023-03-15T02:22:27.283Z,3.38
2023-03-15T02:25:54.191Z,3.33
2023-03-15T02:28:56.404Z,3.00
2023-03-15T02:31:58.762Z,3.35
2023-03-15T02:35:01.268Z,3.10
2023-03-15T02:38:05.863Z,3.78
2023-03-15T02:41:08.609Z,3.70
2023-03-15T02:44:27.266Z,3.65
2023-03-15T02:47:33.856Z,3.63
2023-03-15T02:50:38.432Z,3.78
2023-03-15T02:53:41.152Z,3.70
2023-03-15T02:56:43.219Z,4.13
2023-03-15T02:59:45.363Z,4.43
2023-03-15T03:02:49.200Z,4.75
2023-03-15T03:05:51.736Z,4.70
2023-03-15T03:08:54.022Z,4.70
2023-03-15T03:11:56.576Z,4.73
2023-03-15T03:14:59.298Z,4.10
2023-03-15T03:18:01.727Z,4.05
2023-03-15T03:21:07.059Z,3.97
2023-03-15T03:24:10.267Z,4.10
2023-03-15T03:27:15.430Z,4.27
2023-03-15T03:30:19.879Z,4.72
2023-03-15T03:33:27.405Z,4.35
2023-03-15T03:36:29.595Z,5.07
2023-03-15T03:39:31.799Z,4.60
2023-03-15T03:42:36.300Z,5.13
2023-03-15T03:45:39.251Z,5.13
2023-03-15T03:48:43.136Z,4.05
2023-03-15T03:51:45.229Z,4.82
2023-03-15T03:54:47.304Z,5.55
2023-03-15T03:57:49.409Z,5.00
2023-03-15T04:01:00.622Z,6.05
2023-03-15T04:04:06.638Z,5.13
2023-03-15T04:07:08.927Z,6.05
2023-03-15T04:10:15.134Z,6.10
2023-03-15T04:13:21.611Z,5.97
2023-03-15T04:16:24.921Z,6.63
2023-03-15T04:19:37.225Z,6.15
2023-03-15T04:22:40.475Z,5.90
2023-03-15T04:25:58.232Z,6.90
2023-03-15T04:29:35.896Z,6.90
2023-03-15T04:32:50.447Z,6.63
2023-03-15T04:36:19.081Z,7.72
2023-03-15T04:39:42.848Z,6.70
2023-03-15T04:43:14.599Z,8.05
2023-03-15T04:46:37.033Z,8.23
2023-03-15T04:50:05.747Z,5.85
2023-03-15T04:53:08.900Z,8.55
2023-03-15T04:56:21.991Z,7.95
2023-03-15T04:59:47.767Z,9.25
2023-03-15T05:03:10.353Z,6.37
2023-03-15T05:06:25.188Z,6.88
2023-03-15T05:09:53.607Z,5.32
2023-03-15T05:13:22.907Z,5.30
2023-03-15T05:16:47.048Z,7.68
2023-03-15T05:20:14.295Z,8.17
2023-03-15T05:23:36.598Z,5.57
2023-03-15T05:26:50.027Z,5.28
2023-03-15T05:30:13.253Z,4.40
2023-03-15T05:33:34.859Z,4.00
2023-03-15T05:36:57.110Z,2.70
2023-03-15T05:40:11.579Z,2.42
2023-03-15T05:43:33.964Z,0.70
2023-03-15T05:46:53.215Z,0.80
2023-03-15T05:50:11.384Z,1.00
2023-03-15T05:53:25.165Z,1.10
2023-03-15T05:56:57.517Z,1.60
2023-03-15T06:00:32.783Z,1.80
2023-03-15T06:03:41.519Z,1.55
2023-03-15T06:06:52.768Z,1.65
2023-03-15T06:09:56.398Z,2.03
2023-03-15T06:12:58.705Z,1.73
2023-03-15T06:16:00.944Z,1.80
2023-03-15T06:19:04.580Z,1.88
2023-03-15T06:22:07.473Z,1.48
2023-03-15T06:25:17.837Z,1.60
2023-03-15T06:28:20.512Z,1.83
2023-03-15T06:31:29.346Z,1.67
2023-03-15T06:34:40.280Z,1.60
2023-03-15T06:37:42.602Z,1.52
2023-03-15T06:40:46.002Z,1.47
2023-03-15T06:44:20.559Z,1.67
2023-03-15T06:47:28.096Z,1.73
2023-03-15T06:50:46.123Z,1.80
2023-03-15T06:53:49.084Z,1.67
2023-03-15T06:56:51.255Z,1.80
2023-03-15T06:59:54.247Z,2.20
2023-03-15T07:02:56.630Z,2.25
2023-03-15T07:05:58.784Z,2.25
2023-03-15T07:09:00.931Z,2.45
2023-03-15T07:12:03.524Z,2.40
2023-03-15T07:15:06.735Z,2.80
2023-03-15T07:18:09.016Z,2.20
2023-03-15T07:21:11.213Z,1.75
2023-03-15T07:24:13.423Z,2.08
2023-03-15T07:27:17.685Z,3.37
2023-03-15T07:30:22.743Z,2.60
2023-03-15T07:33:27.037Z,2.90
2023-03-15T07:36:29.280Z,3.38
2023-03-15T07:39:32.639Z,4.88
2023-03-15T07:42:34.924Z,9.73
2023-03-15T07:45:37.163Z,5.25
2023-03-15T07:48:39.512Z,3.60
2023-03-15T07:51:42.537Z,4.40
2023-03-15T07:54:44.707Z,3.72
2023-03-15T07:57:49.509Z,2.90
2023-03-15T08:00:55.406Z,3.40
2023-03-15T08:03:57.677Z,3.00
2023-03-15T08:06:59.886Z,3.60
2023-03-15T08:10:03.180Z,3.22
2023-03-15T08:13:05.428Z,3.50
2023-03-15T08:16:07.792Z,2.80
2023-03-15T08:19:10.452Z,3.17
2023-03-15T08:22:12.760Z,2.20
2023-03-15T08:25:17.327Z,3.28
2023-03-15T08:28:19.508Z,2.57
2023-03-15T08:31:21.763Z,3.38
2023-03-15T08:34:24.669Z,2.97
2023-03-15T08:37:26.844Z,3.17
2023-03-15T08:40:30.510Z,3.65
2023-03-15T08:43:33.031Z,2.30
2023-03-15T08:46:35.223Z,3.35
2023-03-15T08:49:37.359Z,3.05
2023-03-15T08:52:40.140Z,3.15
2023-03-15T08:55:42.487Z,3.57
2023-03-15T08:58:44.855Z,3.57
2023-03-15T09:01:46.896Z,3.05
2023-03-15T09:04:49.105Z,3.15
2023-03-15T09:07:53.214Z,2.92
2023-03-15T09:10:59.019Z,3.25
2023-03-15T09:14:01.077Z,4.53
2023-03-15T09:17:03.505Z,6.45
2023-03-15T09:20:14.432Z,3.72
2023-03-15T09:23:16.575Z,3.40
2023-03-15T09:26:18.665Z,2.47
2023-03-15T09:29:21.195Z,3.20
2023-03-15T09:32:23.297Z,4.07
2023-03-15T09:35:25.600Z,4.00
2023-03-15T09:38:27.799Z,2.55
2023-03-15T09:41:44.115Z,3.20
2023-03-15T09:44:50.614Z,2.43
2023-03-15T09:48:14.385Z,2.53
2023-03-15T09:51:20.477Z,2.63
2023-03-15T09:54:38.822Z,2.90
2023-03-15T09:57:47.472Z,3.35
2023-03-15T10:01:08.465Z,2.87
2023-03-15T10:04:34.805Z,3.03
2023-03-15T10:07:37.000Z,2.63
2023-03-15T10:10:47.484Z,2.33
2023-03-15T10:13:52.740Z,2.90
2023-03-15T10:16:54.939Z,2.67
2023-03-15T10:20:22.102Z,1.90
2023-03-15T10:23:36.474Z,3.38
2023-03-15T10:26:39.840Z,2.88
2023-03-15T10:29:43.483Z,3.42
2023-03-15T10:32:52.096Z,4.70
2023-03-15T10:36:04.318Z,4.28
2023-03-15T10:39:13.122Z,4.25
2023-03-15T10:42:45.433Z,4.28
2023-03-15T10:46:07.593Z,3.00
2023-03-15T10:49:14.827Z,3.30
2023-03-15T10:52:38.922Z,2.60
2023-03-15T10:55:48.793Z,3.78
2023-03-15T10:59:09.527Z,3.58
2023-03-15T11:02:16.507Z,3.33
2023-03-15T11:05:20.281Z,3.23
2023-03-15T11:08:44.319Z,3.00
2023-03-15T11:11:51.769Z,8.18
2023-03-15T11:15:00.993Z,4.07
2023-03-15T11:18:03.289Z,4.05
2023-03-15T11:21:11.730Z,3.93
2023-03-15T11:24:31.980Z,2.50
2023-03-15T11:27:34.446Z,3.17
2023-03-15T11:30:41.662Z,3.63
2023-03-15T11:33:53.744Z,3.60
2023-03-15T11:37:08.441Z,3.07
2023-03-15T11:40:32.898Z,2.95
2023-03-15T11:44:03.839Z,3.92
2023-03-15T11:47:11.271Z,3.75
2023-03-15T11:50:16.597Z,2.53
2023-03-15T11:53:19.362Z,2.67
2023-03-15T11:56:27.562Z,4.25
2023-03-15T11:59:40.068Z,3.40
2023-03-15T12:02:54.564Z,2.83
2023-03-15T12:06:17.610Z,3.72
2023-03-15T12:09:37.684Z,3.37
2023-03-15T12:12:45.707Z,3.05
2023-03-15T12:15:49.200Z,2.97
2023-03-15T12:18:52.198Z,3.33
2023-03-15T12:21:57.783Z,3.65
2023-03-15T12:25:12.031Z,2.83
2023-03-15T12:28:26.938Z,3.28
2023-03-15T12:31:52.519Z,3.13
2023-03-15T12:34:57.322Z,3.40
2023-03-15T12:38:01.681Z,3.17
2023-03-15T12:41:09.793Z,2.97
2023-03-15T12:44:33.761Z,3.05
2023-03-15T12:47:53.417Z,2.92
2023-03-15T12:50:59.272Z,3.10
2023-03-15T12:54:04.232Z,3.53
2023-03-15T12:57:10.233Z,3.57
2023-03-15T13:00:18.892Z,2.53
2023-03-15T13:03:23.568Z,2.60
2023-03-15T13:06:43.711Z,2.75
2023-03-15T13:10:11.347Z,2.22
2023-03-15T13:13:29.670Z,3.63
2023-03-15T13:16:44.489Z,4.05
2023-03-15T13:19:55.091Z,4.15
2023-03-15T13:23:28.061Z,3.67
2023-03-15T13:26:39.396Z,4.68
2023-03-15T13:29:41.566Z,4.30
2023-03-15T13:32:44.597Z,3.70
2023-03-15T13:36:13.167Z,4.63
2023-03-15T13:39:24.112Z,4.55
2023-03-15T13:42:26.901Z,4.28
2023-03-15T13:45:29.109Z,4.13
2023-03-15T13:48:33.919Z,3.72
2023-03-15T13:51:39.277Z,3.72
2023-03-15T13:54:42.273Z,3.67
2023-03-15T13:57:44.466Z,3.15
2023-03-15T14:00:47.412Z,5.50
2023-03-15T14:03:59.773Z,5.38
2023-03-15T14:07:29.603Z,5.65
2023-03-15T14:10:35.023Z,4.22
2023-03-15T14:13:54.599Z,3.80
2023-03-15T14:17:05.248Z,6.53
2023-03-15T14:20:15.218Z,5.75
2023-03-15T14:23:22.482Z,6.78
2023-03-15T14:26:29.502Z,4.93
2023-03-15T14:29:37.334Z,3.78
2023-03-15T14:32:52.583Z,5.33
2023-03-15T14:35:59.614Z,3.92
2023-03-15T14:39:01.907Z,4.85
2023-03-15T14:42:04.650Z,4.38
2023-03-15T14:45:07.396Z,4.20
2023-03-15T14:48:15.779Z,4.63
2023-03-15T14:51:22.328Z,3.40
2023-03-15T14:54:24.605Z,3.38
2023-03-15T14:57:26.975Z,2.90
2023-03-15T15:00:32.556Z,2.67
2023-03-15T15:03:38.731Z,3.07
2023-03-15T15:06:52.713Z,2.35
2023-03-15T15:09:54.889Z,2.95
2023-03-15T15:13:05.900Z,2.50
2023-03-15T15:16:09.068Z,2.00
2023-03-15T15:19:11.817Z,2.63
2023-03-15T15:22:14.593Z,2.67
2023-03-15T15:25:22.387Z,2.15
2023-03-15T15:28:34.592Z,2.15
2023-03-15T15:31:38.896Z,2.47
2023-03-15T15:34:42.636Z,1.90
2023-03-15T15:37:46.789Z,1.90
2023-03-15T15:40:49.471Z,1.48
2023-03-15T15:43:52.376Z,2.20
2023-03-15T15:46:54.497Z,2.10
2023-03-15T15:49:56.520Z,1.93
2023-03-15T15:53:01.218Z,1.88
2023-03-15T15:56:03.287Z,1.85
2023-03-15T15:59:07.215Z,1.55
2023-03-15T16:02:22.371Z,1.45
2023-03-15T16:05:27.647Z,1.33
2023-03-15T16:08:35.193Z,2.05
2023-03-15T16:11:37.309Z,0.95
2023-03-15T16:14:39.527Z,1.85
2023-03-15T16:17:42.171Z,1.10
2023-03-15T16:20:48.684Z,1.60
2023-03-15T16:23:58.114Z,1.60
2023-03-15T16:27:08.164Z,1.10
2023-03-15T16:30:30.515Z,1.50
2023-03-15T16:33:34.825Z,2.95
2023-03-15T16:36:37.543Z,3.03
2023-03-15T16:39:45.687Z,3.22
2023-03-15T16:42:49.674Z,4.15
2023-03-15T16:45:52.180Z,3.40
2023-03-15T16:48:54.653Z,2.83
2023-03-15T16:51:56.792Z,3.30
2023-03-15T16:55:00.579Z,3.35
2023-03-15T16:58:11.334Z,3.22
2023-03-15T17:01:14.930Z,1.92
2023-03-15T17:04:17.576Z,1.80
2023-03-15T17:07:31.802Z,2.07
2023-03-15T17:10:34.756Z,2.08
2023-03-15T17:13:40.846Z,2.78
2023-03-15T17:16:43.542Z,2.90
2023-03-15T17:19:46.175Z,2.78
2023-03-15T17:22:52.949Z,2.27
2023-03-15T17:25:55.354Z,2.95
2023-03-15T17:28:57.908Z,2.33
2023-03-15T17:32:00.491Z,2.65
2023-03-15T17:35:03.577Z,2.80
2023-03-15T17:38:13.812Z,2.50
2023-03-15T17:41:22.147Z,2.20
2023-03-15T17:44:24.501Z,2.50
2023-03-15T17:47:27.034Z,2.85
2023-03-15T17:51:01.929Z,3.03
2023-03-15T17:54:16.918Z,1.97
2023-03-15T17:57:19.492Z,2.85
2023-03-15T18:00:23.417Z,2.80
2023-03-15T18:03:26.828Z,2.75
2023-03-15T18:06:29.205Z,2.28
2023-03-15T18:09:31.540Z,3.03
2023-03-15T18:12:35.001Z,2.35
2023-03-15T18:15:37.676Z,2.70
2023-03-15T18:18:41.642Z,1.90
2023-03-15T18:21:44.220Z,1.33
2023-03-15T18:24:47.211Z,3.30
2023-03-15T18:27:50.022Z,2.22
2023-03-15T18:30:52.595Z,2.63
2023-03-15T18:33:54.974Z,2.42
2023-03-15T18:36:57.381Z,2.55
2023-03-15T18:39:59.917Z,2.47
2023-03-15T18:43:04.255Z,2.50
2023-03-15T18:46:07.128Z,2.58
2023-03-15T18:49:09.800Z,2.50
2023-03-15T18:52:15.987Z,2.20
2023-03-15T18:55:22.094Z,2.23
2023-03-15T18:58:25.280Z,1.88
2023-03-15T19:01:28.125Z,1.85
2023-03-15T19:04:30.919Z,1.60
2023-03-15T19:07:33.347Z,2.25
2023-03-15T19:10:36.469Z,2.37
2023-03-15T19:13:38.952Z,2.30
2023-03-15T19:16:41.442Z,1.90
2023-03-15T19:19:43.803Z,1.27
2023-03-15T19:22:46.178Z,1.85
2023-03-15T19:25:48.719Z,1.90
2023-03-15T19:28:51.233Z,3.22
2023-03-15T19:31:54.125Z,1.50
2023-03-15T19:34:56.856Z,3.00
2023-03-15T19:37:59.535Z,5.45
2023-03-15T19:41:06.830Z,4.50
2023-03-15T19:44:09.404Z,4.28
2023-03-15T19:47:11.821Z,4.25
2023-03-15T19:50:15.849Z,2.80
2023-03-15T19:53:18.522Z,2.78
2023-03-15T19:56:21.765Z,2.63
2023-03-15T19:59:25.051Z,2.33
2023-03-15T20:02:27.605Z,2.78
2023-03-15T20:05:30.278Z,2.53
2023-03-15T20:08:32.706Z,2.70
2023-03-15T20:11:35.071Z,3.53
2023-03-15T20:14:38.470Z,4.05
2023-03-15T20:17:41.121Z,4.13
2023-03-15T20:20:43.725Z,3.63
2023-03-15T20:23:47.960Z,2.20
2023-03-15T20:26:51.866Z,2.60
2023-03-15T20:29:56.606Z,3.92
2023-03-15T20:32:59.639Z,2.40
2023-03-15T20:36:02.273Z,4.07
2023-03-15T20:39:05.645Z,1.90
2023-03-15T20:42:08.430Z,10.43
2023-03-15T20:45:12.738Z,5.35
2023-03-15T20:48:15.491Z,5.20
2023-03-15T20:51:18.509Z,6.60
2023-03-15T20:54:21.049Z,8.13
2023-03-15T20:57:23.468Z,8.00
2023-03-15T21:00:27.250Z,5.72
2023-03-15T21:03:33.229Z,4.88
2023-03-15T21:06:35.842Z,3.42
2023-03-15T21:09:38.212Z,4.40
2023-03-15T21:12:40.783Z,4.90
2023-03-15T21:15:47.203Z,3.83
2023-03-15T21:18:52.477Z,4.15
2023-03-15T21:21:56.843Z,1.98
2023-03-15T21:24:59.003Z,2.63
2023-03-15T21:28:01.596Z,2.40
2023-03-15T21:31:04.077Z,3.03
2023-03-15T21:34:06.785Z,2.80
2023-03-15T21:37:08.931Z,2.88
2023-03-15T21:40:13.093Z,2.03
2023-03-15T21:43:15.156Z,3.20
2023-03-15T21:46:18.137Z,2.13
2023-03-15T21:49:20.300Z,3.25
2023-03-15T21:52:26.240Z,2.75
2023-03-15T21:55:31.334Z,3.05
2023-03-15T21:58:34.117Z,2.47
2023-03-15T22:01:36.929Z,2.10
2023-03-15T22:04:39.012Z,2.20
2023-03-15T22:07:43.764Z,2.40
2023-03-15T22:10:45.887Z,2.42
2023-03-15T22:13:47.960Z,2.70
2023-03-15T22:16:50.159Z,2.30
2023-03-15T22:19:52.352Z,2.67
2023-03-15T22:22:54.355Z,2.33
2023-03-15T22:25:57.689Z,1.60
2023-03-15T22:28:59.871Z,1.83
2023-03-15T22:32:02.155Z,2.00
2023-03-15T22:35:04.550Z,3.10
2023-03-15T22:38:10.344Z,2.33
2023-03-15T22:41:14.133Z,2.08
2023-03-15T22:44:16.268Z,2.27
2023-03-15T22:47:18.276Z,2.63
2023-03-15T22:50:20.734Z,1.67
2023-03-15T22:53:22.864Z,2.75
2023-03-15T22:56:24.952Z,2.58
2023-03-15T22:59:29.143Z,2.97
2023-03-15T23:02:33.053Z,2.15
2023-03-15T23:05:35.693Z,2.35
2023-03-15T23:08:37.765Z,1.70
2023-03-15T23:11:40.135Z,2.10
2023-03-15T23:35:37.167Z,1.90
2023-03-15T23:38:39.536Z,2.67
2023-03-15T23:41:41.831Z,2.67
2023-03-15T23:44:44.074Z,1.80
2023-03-15T23:47:46.141Z,2.28
2023-03-15T23:50:56.202Z,2.97
2023-03-15T23:53:59.539Z,2.17
2023-03-15T23:57:01.576Z,2.13
